createdAt,value
2023-01-19T00:01:25.532Z,16.13
2023-01-19T00:03:52.942Z,13.30
2023-01-19T00:06:20.127Z,15.07
2023-01-19T00:08:49.589Z,13.83
2023-01-19T00:11:19.551Z,13.97
2023-01-19T00:13:50.373Z,21.70
2023-01-19T00:16:18.238Z,15.97
2023-01-19T00:18:45.890Z,18.13
2023-01-19T00:21:14.736Z,15.87
2023-01-19T00:23:42.607Z,15.23
2023-01-19T00:26:10.268Z,15.80
2023-01-19T00:28:37.367Z,14.47
2023-01-19T00:31:04.489Z,14.87
2023-01-19T00:33:31.678Z,19.47
2023-01-19T00:35:58.774Z,17.90
2023-01-19T00:38:25.869Z,16.70
2023-01-19T00:40:52.974Z,14.97
2023-01-19T00:43:20.333Z,18.03
2023-01-19T00:45:47.655Z,16.93
2023-01-19T00:48:14.746Z,17.23
2023-01-19T00:50:41.881Z,17.83
2023-01-19T00:53:09.771Z,16.87
2023-01-19T00:55:36.846Z,17.57
2023-01-19T00:58:04.115Z,14.43
2023-01-19T01:00:31.281Z,18.67
2023-01-19T01:02:58.960Z,17.37
2023-01-19T01:05:26.274Z,15.67
2023-01-19T01:07:53.360Z,18.30
2023-01-19T01:10:20.484Z,18.30
2023-01-19T01:12:57.765Z,15.30
2023-01-19T01:15:26.433Z,16.83
2023-01-19T01:17:53.658Z,16.93
2023-01-19T01:20:22.746Z,16.87
2023-01-19T01:22:51.403Z,16.53
2023-01-19T01:25:19.398Z,17.10
2023-01-19T01:27:46.575Z,17.13
2023-01-19T01:30:14.709Z,15.60
2023-01-19T01:32:42.348Z,22.73
2023-01-19T01:35:10.170Z,21.77
2023-01-19T01:37:37.725Z,20.67
2023-01-19T01:40:05.483Z,15.90
2023-01-19T01:42:33.125Z,17.50
2023-01-19T01:45:01.432Z,16.60
2023-01-19T01:47:33.461Z,15.73
2023-01-19T01:50:06.525Z,19.23
2023-01-19T01:52:35.061Z,22.17
2023-01-19T01:55:03.235Z,18.47
2023-01-19T01:57:30.606Z,19.17
2023-01-19T01:59:58.048Z,18.03
2023-01-19T02:02:46.872Z,20.90
2023-01-19T02:05:16.762Z,17.60
2023-01-19T02:08:14.391Z,18.50
2023-01-19T02:11:01.142Z,19.80
2023-01-19T02:13:29.974Z,16.67
2023-01-19T02:15:59.838Z,22.00
2023-01-19T02:18:32.068Z,21.30
2023-01-19T02:21:04.619Z,20.93
2023-01-19T02:23:38.865Z,21.23
2023-01-19T02:26:07.249Z,19.93
2023-01-19T02:28:34.545Z,23.30
2023-01-19T02:31:01.683Z,20.27
2023-01-19T02:33:29.559Z,24.93
2023-01-19T02:35:57.578Z,19.30
2023-01-19T02:38:26.747Z,17.77
2023-01-19T02:40:55.419Z,28.03
2023-01-19T02:43:23.276Z,16.03
2023-01-19T02:45:50.670Z,20.43
2023-01-19T02:48:19.317Z,20.50
2023-01-19T02:50:49.700Z,17.23
2023-01-19T02:53:35.347Z,16.57
2023-01-19T02:56:02.406Z,19.17
2023-01-19T02:58:55.582Z,15.90
2023-01-19T03:01:27.904Z,19.03
2023-01-19T03:03:55.012Z,21.23
2023-01-19T03:06:37.159Z,19.93
2023-01-19T03:09:27.673Z,18.80
2023-01-19T03:12:17.691Z,17.27
2023-01-19T03:14:48.524Z,16.63
2023-01-19T03:17:17.884Z,21.50
2023-01-19T03:19:47.610Z,23.40
2023-01-19T03:22:16.413Z,20.60
2023-01-19T03:24:45.580Z,17.30
2023-01-19T03:27:15.566Z,20.63
2023-01-19T03:29:43.625Z,18.37
2023-01-19T03:32:14.247Z,19.50
2023-01-19T03:34:42.571Z,18.00
2023-01-19T03:37:10.985Z,21.93
2023-01-19T03:39:38.306Z,25.13
2023-01-19T03:42:13.731Z,17.03
2023-01-19T03:44:42.321Z,21.10
2023-01-19T03:47:10.661Z,20.20
2023-01-19T03:49:38.548Z,20.43
2023-01-19T03:52:05.959Z,19.27
2023-01-19T03:54:33.190Z,20.50
2023-01-19T03:57:00.265Z,19.83
2023-01-19T03:59:27.350Z,17.57
2023-01-19T04:01:54.872Z,20.20
2023-01-19T04:04:21.987Z,22.20
2023-01-19T04:06:49.072Z,20.53
2023-01-19T04:09:17.525Z,17.77
2023-01-19T04:11:45.637Z,19.60
2023-01-19T04:14:12.851Z,17.53
2023-01-19T04:16:39.938Z,20.93
2023-01-19T04:19:07.080Z,17.57
2023-01-19T04:21:35.155Z,20.73
2023-01-19T04:24:02.232Z,20.43
2023-01-19T04:26:29.673Z,20.37
2023-01-19T04:28:56.743Z,16.17
2023-01-19T04:31:23.943Z,22.47
2023-01-19T04:33:51.341Z,16.17
2023-01-19T04:36:18.456Z,14.97
2023-01-19T04:38:46.616Z,20.13
2023-01-19T04:41:13.747Z,14.77
2023-01-19T04:43:40.968Z,16.63
2023-01-19T04:46:08.239Z,19.57
2023-01-19T04:48:35.575Z,17.67
2023-01-19T04:51:02.856Z,16.27
2023-01-19T04:53:29.929Z,23.00
2023-01-19T04:55:57.215Z,16.93
2023-01-19T04:58:24.286Z,15.50
2023-01-19T05:00:52.201Z,18.07
2023-01-19T05:03:19.769Z,18.20
2023-01-19T05:05:47.076Z,16.50
2023-01-19T05:08:14.363Z,20.43
2023-01-19T05:10:41.498Z,17.63
2023-01-19T05:13:08.572Z,15.87
2023-01-19T05:15:35.651Z,18.50
2023-01-19T05:18:02.767Z,16.93
2023-01-19T05:20:29.917Z,14.87
2023-01-19T05:22:57.103Z,13.17
2023-01-19T05:25:24.302Z,14.10
2023-01-19T05:27:51.369Z,12.90
2023-01-19T05:30:19.176Z,12.40
2023-01-19T05:32:46.270Z,12.80
2023-01-19T05:35:20.189Z,13.40
2023-01-19T05:37:49.482Z,12.13
2023-01-19T05:40:16.758Z,11.03
2023-01-19T05:42:43.829Z,11.43
2023-01-19T05:45:11.884Z,11.70
2023-01-19T05:47:39.892Z,12.57
2023-01-19T05:50:07.706Z,11.03
2023-01-19T05:52:34.816Z,12.03
2023-01-19T05:55:01.894Z,11.80
2023-01-19T05:57:29.014Z,11.10
2023-01-19T05:59:56.082Z,11.47
2023-01-19T06:02:28.499Z,13.87
2023-01-19T06:04:55.917Z,14.30
2023-01-19T06:07:24.395Z,13.17
2023-01-19T06:09:52.235Z,14.90
2023-01-19T06:12:19.552Z,15.00
2023-01-19T06:14:46.685Z,12.83
2023-01-19T06:17:13.744Z,13.47
2023-01-19T06:19:40.948Z,12.97
2023-01-19T06:22:08.192Z,14.80
2023-01-19T06:24:35.267Z,12.53
2023-01-19T06:27:02.616Z,12.47
2023-01-19T06:29:29.764Z,13.70
2023-01-19T06:31:56.964Z,11.97
2023-01-19T06:34:28.585Z,13.30
2023-01-19T06:36:58.821Z,10.73
2023-01-19T06:39:25.934Z,11.10
2023-01-19T06:41:53.026Z,11.33
2023-01-19T06:44:20.115Z,11.37
2023-01-19T06:46:48.888Z,11.63
2023-01-19T06:49:16.004Z,10.97
2023-01-19T06:51:43.193Z,9.73
2023-01-19T06:54:10.366Z,10.07
2023-01-19T06:56:37.441Z,8.83
2023-01-19T06:59:05.466Z,8.57
2023-01-19T07:01:32.786Z,9.60
2023-01-19T07:03:59.925Z,10.23
2023-01-19T07:06:27.076Z,8.17
2023-01-19T07:08:54.763Z,10.57
2023-01-19T07:11:29.361Z,8.17
2023-01-19T07:13:58.982Z,8.93
2023-01-19T07:16:26.200Z,8.80
2023-01-19T07:18:53.380Z,9.53
2023-01-19T07:21:20.720Z,8.80
2023-01-19T07:23:51.813Z,8.43
2023-01-19T07:26:21.331Z,8.60
2023-01-19T07:28:48.913Z,8.23
2023-01-19T07:31:16.499Z,9.40
2023-01-19T07:33:43.720Z,7.73
2023-01-19T07:36:11.194Z,7.47
2023-01-19T07:38:38.352Z,7.37
2023-01-19T07:41:06.459Z,7.13
2023-01-19T07:43:33.959Z,9.03
2023-01-19T07:46:02.196Z,8.83
2023-01-19T07:48:29.319Z,7.63
2023-01-19T07:51:10.381Z,7.90
2023-01-19T07:53:40.297Z,8.50
2023-01-19T07:56:07.754Z,9.60
2023-01-19T07:58:35.090Z,8.93
2023-01-19T08:01:06.479Z,12.70
2023-01-19T08:03:34.174Z,8.20
2023-01-19T08:06:02.382Z,8.20
2023-01-19T08:08:33.038Z,11.47
2023-01-19T08:11:00.384Z,8.07
2023-01-19T08:13:27.828Z,8.97
2023-01-19T08:15:55.097Z,9.43
2023-01-19T08:18:22.460Z,9.70
2023-01-19T08:20:49.606Z,10.20
2023-01-19T08:23:18.062Z,9.70
2023-01-19T08:25:45.990Z,11.20
2023-01-19T08:28:15.196Z,9.90
2023-01-19T08:30:44.322Z,9.57
2023-01-19T08:33:14.577Z,13.60
2023-01-19T08:35:42.806Z,31.63
2023-01-19T08:38:10.694Z,20.23
2023-01-19T08:40:39.181Z,26.07
2023-01-19T08:43:07.879Z,32.43
2023-01-19T08:45:35.688Z,29.80
2023-01-19T08:48:02.831Z,18.20
2023-01-19T08:50:30.898Z,17.23
2023-01-19T08:52:58.940Z,19.33
2023-01-19T08:55:26.870Z,15.00
2023-01-19T08:57:54.476Z,18.87
2023-01-19T09:00:22.350Z,16.33
2023-01-19T09:02:49.613Z,21.50
2023-01-19T09:05:16.698Z,14.37
2023-01-19T09:07:51.616Z,17.30
2023-01-19T09:10:18.989Z,18.50
2023-01-19T09:12:46.437Z,34.03
2023-01-19T09:15:13.934Z,21.67
2023-01-19T09:17:42.298Z,13.73
2023-01-19T09:20:11.164Z,18.90
2023-01-19T09:22:39.639Z,13.57
2023-01-19T09:25:07.992Z,13.97
2023-01-19T09:27:35.233Z,23.43
2023-01-19T09:30:02.387Z,11.67
2023-01-19T09:32:29.529Z,11.67
2023-01-19T09:34:56.806Z,21.10
2023-01-19T09:37:23.934Z,10.70
2023-01-19T09:39:51.071Z,13.93
2023-01-19T09:42:20.957Z,20.27
2023-01-19T09:44:49.887Z,18.53
2023-01-19T09:47:18.410Z,11.07
2023-01-19T09:49:48.296Z,15.93
2023-01-19T09:52:16.179Z,20.17
2023-01-19T09:54:50.079Z,13.63
2023-01-19T09:57:17.373Z,14.90
2023-01-19T09:59:47.790Z,11.90
2023-01-19T10:02:21.024Z,9.60
2023-01-19T10:04:57.099Z,13.70
2023-01-19T10:07:24.182Z,11.97
2023-01-19T10:10:01.472Z,14.10
2023-01-19T10:12:28.583Z,22.23
2023-01-19T10:15:01.635Z,12.50
2023-01-19T10:17:43.294Z,13.23
2023-01-19T10:20:15.656Z,13.13
2023-01-19T10:22:43.835Z,11.13
2023-01-19T10:25:16.524Z,13.77
2023-01-19T10:27:46.296Z,10.57
2023-01-19T10:30:31.649Z,12.13
2023-01-19T10:32:59.405Z,12.97
2023-01-19T10:35:26.762Z,12.17
2023-01-19T10:37:56.096Z,12.93
2023-01-19T10:40:32.256Z,15.60
2023-01-19T10:42:59.818Z,17.03
2023-01-19T10:45:32.095Z,15.97
2023-01-19T10:48:01.922Z,11.93
2023-01-19T10:50:30.754Z,19.63
2023-01-19T10:52:59.733Z,11.13
2023-01-19T10:55:28.887Z,15.50
2023-01-19T10:57:56.318Z,12.73
2023-01-19T11:00:38.181Z,10.07
2023-01-19T11:03:06.785Z,21.40
2023-01-19T11:05:34.896Z,19.10
2023-01-19T11:08:02.041Z,14.07
2023-01-19T11:10:30.047Z,21.73
2023-01-19T11:12:57.143Z,11.70
2023-01-19T11:15:25.873Z,19.10
2023-01-19T11:17:53.492Z,20.57
2023-01-19T11:20:25.020Z,16.90
2023-01-19T11:23:05.797Z,13.47
2023-01-19T11:25:34.305Z,19.90
2023-01-19T11:28:01.663Z,16.80
2023-01-19T11:30:28.856Z,21.03
2023-01-19T11:32:56.330Z,15.47
2023-01-19T11:35:29.658Z,16.73
2023-01-19T11:38:14.802Z,20.43
2023-01-19T11:40:42.836Z,18.87
2023-01-19T11:43:16.134Z,16.40
2023-01-19T11:45:44.179Z,18.17
2023-01-19T11:48:17.846Z,17.00
2023-01-19T11:50:45.574Z,19.37
2023-01-19T11:53:19.566Z,18.47
2023-01-19T11:56:04.700Z,15.03
2023-01-19T11:58:32.821Z,24.70
2023-01-19T12:01:04.823Z,22.70
2023-01-19T12:03:34.524Z,17.77
2023-01-19T12:06:07.515Z,23.10
2023-01-19T12:08:40.387Z,14.50
2023-01-19T12:11:09.641Z,20.07
2023-01-19T12:13:37.529Z,17.73
2023-01-19T12:16:06.943Z,17.97
2023-01-19T12:18:37.136Z,15.37
2023-01-19T12:21:04.543Z,18.40
2023-01-19T12:23:50.286Z,16.90
2023-01-19T12:26:17.359Z,14.20
2023-01-19T12:28:48.704Z,20.77
2023-01-19T12:31:19.941Z,21.37
2023-01-19T12:33:47.474Z,16.27
2023-01-19T12:36:14.592Z,13.73
2023-01-19T12:38:47.666Z,17.17
2023-01-19T12:41:26.134Z,15.83
2023-01-19T12:44:19.979Z,20.60
2023-01-19T12:46:51.708Z,15.57
2023-01-19T12:49:36.615Z,18.13
2023-01-19T12:52:20.872Z,14.00
2023-01-19T12:54:51.084Z,19.03
2023-01-19T12:57:21.591Z,14.33
2023-01-19T12:59:55.951Z,15.93
2023-01-19T13:02:26.650Z,18.50
2023-01-19T13:05:15.260Z,19.33
2023-01-19T13:08:01.167Z,18.73
2023-01-19T13:10:47.072Z,13.27
2023-01-19T13:13:18.083Z,19.33
2023-01-19T13:15:45.215Z,20.03
2023-01-19T13:18:20.539Z,19.87
2023-01-19T13:20:51.195Z,18.93
2023-01-19T13:23:26.073Z,21.20
2023-01-19T13:26:03.558Z,23.63
2023-01-19T13:28:36.647Z,17.70
2023-01-19T13:31:05.094Z,17.37
2023-01-19T13:33:38.617Z,19.87
2023-01-19T13:36:15.875Z,21.83
2023-01-19T13:38:43.541Z,27.13
2023-01-19T13:41:10.669Z,29.03
2023-01-19T13:43:38.301Z,38.37
2023-01-19T13:46:06.446Z,29.50
2023-01-19T13:48:33.721Z,30.80
2023-01-19T13:51:02.255Z,27.37
2023-01-19T13:53:30.285Z,24.60
2023-01-19T13:56:18.389Z,17.40
2023-01-19T13:58:57.490Z,19.67
2023-01-19T14:01:26.620Z,17.37
2023-01-19T14:03:55.928Z,19.50
2023-01-19T14:06:24.087Z,17.70
2023-01-19T14:09:10.158Z,20.10
2023-01-19T14:11:37.286Z,21.30
2023-01-19T14:14:04.479Z,18.37
2023-01-19T14:16:31.650Z,18.03
2023-01-19T14:19:04.140Z,23.37
2023-01-19T14:21:38.648Z,19.90
2023-01-19T14:24:10.007Z,24.83
2023-01-19T14:26:43.411Z,26.30
2023-01-19T14:29:10.454Z,15.37
2023-01-19T14:31:50.756Z,24.43
2023-01-19T14:34:34.422Z,19.13
2023-01-19T14:37:02.345Z,15.97
2023-01-19T14:39:31.136Z,25.10
2023-01-19T14:41:59.661Z,18.97
2023-01-19T14:44:35.519Z,20.63
2023-01-19T14:47:03.004Z,19.63
2023-01-19T14:49:37.129Z,17.40
2023-01-19T14:52:07.226Z,20.07
2023-01-19T14:54:36.408Z,26.20
2023-01-19T14:57:03.501Z,22.93
2023-01-19T14:59:32.627Z,21.07
2023-01-19T15:02:00.132Z,22.37
2023-01-19T15:04:27.345Z,21.13
2023-01-19T15:06:55.672Z,21.63
2023-01-19T15:09:23.453Z,24.43
2023-01-19T15:11:50.910Z,24.30
2023-01-19T15:14:19.541Z,26.27
2023-01-19T15:16:46.766Z,23.87
2023-01-19T15:19:14.525Z,28.67
2023-01-19T15:21:42.312Z,23.27
2023-01-19T15:24:12.987Z,25.23
2023-01-19T15:26:41.274Z,24.10
2023-01-19T15:29:22.655Z,19.87
2023-01-19T15:31:50.012Z,20.47
2023-01-19T15:34:17.148Z,28.47
2023-01-19T15:36:44.884Z,25.27
2023-01-19T15:39:11.987Z,23.00
2023-01-19T15:41:40.477Z,22.87
2023-01-19T15:44:09.095Z,23.23
2023-01-19T15:46:36.526Z,24.03
2023-01-19T15:49:05.653Z,30.23
2023-01-19T15:51:33.192Z,49.77
2023-01-19T15:54:00.554Z,60.30
2023-01-19T15:56:29.033Z,38.23
2023-01-19T15:58:56.449Z,31.47
2023-01-19T16:01:24.743Z,25.30
2023-01-19T16:03:51.930Z,23.00
2023-01-19T16:06:19.031Z,29.03
2023-01-19T16:08:46.277Z,23.33
2023-01-19T16:11:15.177Z,28.27
2023-01-19T16:13:45.879Z,30.50
2023-01-19T16:16:17.161Z,23.23
2023-01-19T16:18:44.323Z,32.93
2023-01-19T16:21:11.472Z,24.80
2023-01-19T16:23:38.770Z,31.43
2023-01-19T16:26:07.878Z,29.47
2023-01-19T16:28:35.968Z,28.47
2023-01-19T16:31:03.311Z,27.20
2023-01-19T16:33:30.514Z,31.27
2023-01-19T16:35:57.604Z,26.23
2023-01-19T16:38:24.719Z,31.60
2023-01-19T16:40:51.827Z,30.90
2023-01-19T16:43:18.956Z,30.30
2023-01-19T16:45:58.012Z,27.27
2023-01-19T16:48:25.406Z,29.63
2023-01-19T16:51:01.729Z,31.93
2023-01-19T16:53:29.194Z,30.03
2023-01-19T16:55:56.568Z,30.83
2023-01-19T16:58:23.820Z,31.20
2023-01-19T17:00:51.000Z,37.60
2023-01-19T17:03:18.416Z,31.17
2023-01-19T17:05:51.957Z,31.40
2023-01-19T17:08:20.108Z,32.60
2023-01-19T17:10:47.911Z,32.67
2023-01-19T17:13:15.000Z,32.97
2023-01-19T17:15:42.212Z,28.50
2023-01-19T17:18:10.090Z,38.40
2023-01-19T17:20:37.359Z,29.77
2023-01-19T17:23:04.517Z,33.53
2023-01-19T17:25:31.758Z,35.47
2023-01-19T17:28:01.616Z,32.93
2023-01-19T17:30:28.882Z,31.00
2023-01-19T17:32:56.037Z,33.73
2023-01-19T17:35:23.118Z,25.20
2023-01-19T17:37:53.238Z,27.43
2023-01-19T17:40:20.363Z,28.80
2023-01-19T17:42:48.060Z,31.37
2023-01-19T17:45:15.204Z,30.13
2023-01-19T17:47:42.381Z,27.03
2023-01-19T17:50:09.825Z,31.90
2023-01-19T17:52:37.995Z,29.63
2023-01-19T17:55:05.229Z,35.10
2023-01-19T17:57:32.322Z,36.50
2023-01-19T17:59:59.494Z,32.47
2023-01-19T18:02:26.651Z,30.40
2023-01-19T18:04:53.883Z,32.67
2023-01-19T18:07:20.931Z,36.00
2023-01-19T18:09:48.034Z,27.40
2023-01-19T18:12:15.947Z,29.60
2023-01-19T18:14:43.237Z,30.97
2023-01-19T18:17:10.383Z,31.73
2023-01-19T18:19:37.461Z,30.10
2023-01-19T18:22:04.565Z,33.47
2023-01-19T18:24:31.672Z,31.47
2023-01-19T18:26:58.762Z,36.80
2023-01-19T18:29:25.890Z,31.87
2023-01-19T18:31:52.964Z,29.17
2023-01-19T18:34:20.104Z,31.87
2023-01-19T18:36:47.315Z,30.03
2023-01-19T18:39:14.394Z,36.57
2023-01-19T18:41:44.319Z,29.73
2023-01-19T18:44:12.244Z,31.73
2023-01-19T18:46:39.533Z,32.30
2023-01-19T18:49:06.843Z,28.77
2023-01-19T18:51:33.969Z,30.00
2023-01-19T18:54:01.077Z,31.37
2023-01-19T18:56:28.179Z,33.10
2023-01-19T18:58:55.458Z,30.23
2023-01-19T19:01:27.058Z,34.67
2023-01-19T19:03:54.909Z,30.50
2023-01-19T19:06:22.761Z,30.60
2023-01-19T19:08:50.785Z,30.10
2023-01-19T19:11:21.528Z,28.57
2023-01-19T19:13:58.876Z,37.67
2023-01-19T19:16:25.991Z,44.03
2023-01-19T19:18:53.121Z,58.77
2023-01-19T19:21:23.944Z,90.93
2023-01-19T19:23:52.073Z,42.70
2023-01-19T19:26:19.438Z,39.37
2023-01-19T19:28:47.470Z,36.47
2023-01-19T19:31:16.643Z,31.00
2023-01-19T19:33:43.824Z,28.83
2023-01-19T19:36:12.655Z,34.03
2023-01-19T19:38:42.738Z,29.67
2023-01-19T19:41:10.527Z,27.53
2023-01-19T19:43:38.088Z,27.23
2023-01-19T19:46:12.594Z,30.60
2023-01-19T19:48:40.145Z,28.03
2023-01-19T19:51:17.381Z,24.20
2023-01-19T19:53:45.410Z,28.63
2023-01-19T19:56:13.606Z,29.47
2023-01-19T19:58:41.974Z,29.83
2023-01-19T20:01:09.311Z,30.00
2023-01-19T20:03:36.877Z,32.43
2023-01-19T20:06:10.372Z,29.70
2023-01-19T20:08:37.711Z,25.93
2023-01-19T20:11:09.430Z,29.00
2023-01-19T20:13:37.104Z,29.97
2023-01-19T20:16:05.077Z,31.23
2023-01-19T20:18:32.272Z,30.47
2023-01-19T20:20:59.896Z,34.00
2023-01-19T20:23:27.193Z,29.27
2023-01-19T20:25:54.547Z,31.63
2023-01-19T20:28:21.617Z,38.13
2023-01-19T20:30:48.794Z,34.83
2023-01-19T20:33:15.958Z,34.07
2023-01-19T20:35:43.087Z,31.10
2023-01-19T20:38:10.169Z,30.23
2023-01-19T20:40:37.282Z,37.80
2023-01-19T20:43:04.428Z,35.77
2023-01-19T20:45:32.529Z,33.70
2023-01-19T20:47:59.765Z,30.03
2023-01-19T20:50:27.211Z,36.93
2023-01-19T20:52:54.312Z,32.03
2023-01-19T20:55:21.389Z,32.47
2023-01-19T20:57:48.444Z,34.07
2023-01-19T21:00:15.703Z,35.27
2023-01-19T21:02:42.881Z,30.87
2023-01-19T21:05:10.212Z,35.77
2023-01-19T21:07:37.399Z,39.20
2023-01-19T21:10:04.752Z,32.00
2023-01-19T21:12:31.833Z,39.33
2023-01-19T21:14:59.196Z,34.97
2023-01-19T21:17:26.301Z,35.20
2023-01-19T21:19:53.390Z,32.83
2023-01-19T21:22:20.607Z,33.70
2023-01-19T21:24:47.751Z,33.77
2023-01-19T21:27:14.873Z,36.43
2023-01-19T21:29:42.073Z,38.23
2023-01-19T21:32:09.267Z,37.67
2023-01-19T21:34:36.686Z,31.67
2023-01-19T21:37:03.761Z,34.57
2023-01-19T21:39:30.886Z,34.83
2023-01-19T21:41:58.009Z,38.77
2023-01-19T21:44:25.089Z,33.33
2023-01-19T21:46:52.228Z,34.90
2023-01-19T21:49:20.706Z,33.87
2023-01-19T21:51:50.392Z,40.93
2023-01-19T21:54:17.814Z,39.70
2023-01-19T21:57:02.508Z,35.40
2023-01-19T21:59:29.618Z,41.47
2023-01-19T22:01:57.041Z,45.33
2023-01-19T22:04:24.195Z,43.93
2023-01-19T22:06:51.333Z,45.23
2023-01-19T22:09:18.399Z,50.73
2023-01-19T22:11:45.498Z,41.33
2023-01-19T22:14:12.608Z,45.47
2023-01-19T22:16:39.732Z,40.07
2023-01-19T22:19:08.124Z,46.83
2023-01-19T22:21:35.885Z,40.70
2023-01-19T22:24:03.918Z,39.50
2023-01-19T22:26:31.966Z,43.73
2023-01-19T22:29:00.180Z,44.27
2023-01-19T22:31:28.090Z,48.57
2023-01-19T22:33:55.988Z,44.20
2023-01-19T22:36:24.310Z,39.57
2023-01-19T22:38:53.183Z,46.43
2023-01-19T22:41:21.725Z,47.87
2023-01-19T22:43:50.341Z,39.37
2023-01-19T22:46:18.712Z,49.60
2023-01-19T22:48:46.174Z,44.13
2023-01-19T22:51:13.599Z,50.23
2023-01-19T22:53:40.687Z,40.50
2023-01-19T22:56:11.875Z,41.47
2023-01-19T22:58:44.194Z,39.40
2023-01-19T23:01:13.539Z,39.67
2023-01-19T23:03:41.075Z,42.47
2023-01-19T23:06:09.789Z,40.37
2023-01-19T23:08:37.466Z,43.30
2023-01-19T23:11:05.523Z,44.83
2023-01-19T23:13:34.929Z,45.27
2023-01-19T23:16:02.575Z,38.53
2023-01-19T23:18:30.123Z,36.97
2023-01-19T23:21:02.242Z,44.37
2023-01-19T23:23:29.322Z,49.80
2023-01-19T23:25:59.958Z,43.70
2023-01-19T23:28:27.092Z,40.90
2023-01-19T23:30:54.374Z,41.23
2023-01-19T23:33:21.667Z,43.17
2023-01-19T23:35:48.743Z,45.63
2023-01-19T23:38:15.885Z,39.37
2023-01-19T23:40:42.957Z,44.90
2023-01-19T23:43:10.065Z,45.90
2023-01-19T23:45:37.266Z,40.93
2023-01-19T23:48:04.432Z,39.60
2023-01-19T23:50:31.499Z,36.97
2023-01-19T23:52:58.572Z,41.93
2023-01-19T23:55:27.659Z,36.43
2023-01-19T23:57:54.743Z,39.83
